createdAt,value
2019-01-28T00:00:30.592Z,1.20
2019-01-28T00:03:00.564Z,1.30
2019-01-28T00:05:28.984Z,1.57
2019-01-28T00:07:57.429Z,1.40
2019-01-28T00:10:25.857Z,1.20
2019-01-28T00:12:54.262Z,2.00
2019-01-28T00:15:22.762Z,1.37
2019-01-28T00:17:51.179Z,1.40
2019-01-28T00:20:19.626Z,1.70
2019-01-28T00:22:48.110Z,1.77
2019-01-28T00:25:16.540Z,1.03
2019-01-28T00:27:44.981Z,1.40
2019-01-28T00:30:13.532Z,1.73
2019-01-28T00:32:41.980Z,1.10
2019-01-28T00:35:10.439Z,2.23
2019-01-28T00:37:38.935Z,1.50
2019-01-28T00:40:10.219Z,1.07
2019-01-28T00:42:38.635Z,1.40
2019-01-28T00:45:10.280Z,1.57
2019-01-28T00:47:38.703Z,1.57
2019-01-28T00:50:10.086Z,1.83
2019-01-28T00:52:38.574Z,1.27
2019-01-28T00:55:10.303Z,2.70
2019-01-28T00:57:38.742Z,1.47
2019-01-28T01:00:26.530Z,2.03
2019-01-28T01:02:54.962Z,1.97
2019-01-28T01:05:23.426Z,1.57
2019-01-28T01:07:51.856Z,1.40
2019-01-28T01:10:20.353Z,1.80
2019-01-28T01:12:48.800Z,1.97
2019-01-28T01:15:17.292Z,1.67
2019-01-28T01:17:45.728Z,1.50
2019-01-28T01:20:16.733Z,0.77
2019-01-28T01:23:04.550Z,1.10
2019-01-28T01:25:32.971Z,1.23
2019-01-28T01:28:01.397Z,1.00
2019-01-28T01:30:29.860Z,0.90
2019-01-28T01:32:58.638Z,1.20
2019-01-28T01:35:27.671Z,1.03
2019-01-28T01:37:56.496Z,0.53
2019-01-28T01:40:24.991Z,1.00
2019-01-28T01:42:53.428Z,1.13
2019-01-28T01:45:21.866Z,1.50
2019-01-28T01:47:50.279Z,0.90
2019-01-28T01:50:18.711Z,1.13
2019-01-28T01:52:47.154Z,1.20
2019-01-28T01:55:15.672Z,0.87
2019-01-28T01:57:44.182Z,0.83
2019-01-28T02:00:15.071Z,0.90
2019-01-28T02:02:43.511Z,0.80
2019-01-28T02:05:12.024Z,0.87
2019-01-28T02:07:40.459Z,0.73
2019-01-28T02:10:11.748Z,1.00
2019-01-28T02:12:40.191Z,1.17
2019-01-28T02:15:12.162Z,0.83
2019-01-28T02:17:40.674Z,0.77
2019-01-28T02:20:10.728Z,0.97
2019-01-28T02:22:39.184Z,0.60
2019-01-28T02:25:10.164Z,0.80
2019-01-28T02:27:38.701Z,0.87
2019-01-28T02:30:12.672Z,1.23
2019-01-28T02:32:41.192Z,1.33
2019-01-28T02:35:10.260Z,0.50
2019-01-28T02:37:38.796Z,1.50
2019-01-28T02:40:12.751Z,1.00
2019-01-28T02:42:41.191Z,0.60
2019-01-28T02:45:11.762Z,1.00
2019-01-28T02:47:40.219Z,0.77
2019-01-28T02:50:14.285Z,0.87
2019-01-28T02:52:42.735Z,1.00
2019-01-28T02:55:11.798Z,0.90
2019-01-28T02:57:40.311Z,0.77
2019-01-28T03:00:17.559Z,0.50
2019-01-28T03:02:46.413Z,1.00
2019-01-28T03:05:34.195Z,1.07
2019-01-28T03:08:02.635Z,1.10
2019-01-28T03:10:31.042Z,0.70
2019-01-28T03:12:59.491Z,1.10
2019-01-28T03:15:27.931Z,1.03
2019-01-28T03:17:56.375Z,0.50
2019-01-28T03:20:24.796Z,1.10
2019-01-28T03:22:53.215Z,1.40
2019-01-28T03:25:21.736Z,1.90
2019-01-28T03:27:50.164Z,1.37
2019-01-28T03:30:21.114Z,1.77
2019-01-28T03:32:50.098Z,1.73
2019-01-28T03:35:18.934Z,1.23
2019-01-28T03:37:47.426Z,2.03
2019-01-28T03:40:18.880Z,1.90
2019-01-28T03:42:47.620Z,2.10
2019-01-28T03:45:18.128Z,1.50
2019-01-28T03:47:46.569Z,2.93
2019-01-28T03:50:17.146Z,2.30
2019-01-28T03:52:45.770Z,2.50
2019-01-28T03:55:14.395Z,2.90
2019-01-28T03:57:43.159Z,3.10
2019-01-28T04:00:17.361Z,2.43
2019-01-28T04:02:45.880Z,2.70
2019-01-28T04:05:14.431Z,2.00
2019-01-28T04:07:43.285Z,2.00
2019-01-28T04:10:14.810Z,1.63
2019-01-28T04:12:43.259Z,4.17
2019-01-28T04:15:14.429Z,1.50
2019-01-28T04:17:42.879Z,2.73
2019-01-28T04:20:14.065Z,4.40
2019-01-28T04:22:42.567Z,3.40
2019-01-28T04:25:12.479Z,3.37
2019-01-28T04:27:40.983Z,3.70
2019-01-28T04:30:21.874Z,2.70
2019-01-28T04:32:50.307Z,2.63
2019-01-28T04:35:19.005Z,3.20
2019-01-28T04:38:06.785Z,3.03
2019-01-28T04:40:35.195Z,2.23
2019-01-28T04:43:03.703Z,2.17
2019-01-28T04:45:32.152Z,1.97
2019-01-28T04:48:00.579Z,3.53
2019-01-28T04:50:29.042Z,2.30
2019-01-28T04:52:57.488Z,2.13
2019-01-28T04:55:25.902Z,1.53
2019-01-28T04:57:54.359Z,2.00
2019-01-28T05:00:24.736Z,1.27
2019-01-28T05:02:53.297Z,2.30
2019-01-28T05:05:22.158Z,1.20
2019-01-28T05:07:50.767Z,1.90
2019-01-28T05:10:20.739Z,2.13
2019-01-28T05:12:49.398Z,1.10
2019-01-28T05:15:19.408Z,1.40
2019-01-28T05:17:47.890Z,1.70
2019-01-28T05:20:35.724Z,0.70
2019-01-28T05:23:04.219Z,0.70
2019-01-28T05:25:32.631Z,1.30
2019-01-28T05:28:01.072Z,1.27
2019-01-28T05:30:29.490Z,0.83
2019-01-28T05:32:57.926Z,1.40
2019-01-28T05:35:26.348Z,1.33
2019-01-28T05:37:54.801Z,0.93
2019-01-28T05:40:24.778Z,1.10
2019-01-28T05:42:53.336Z,1.87
2019-01-28T05:45:24.173Z,0.90
2019-01-28T05:47:52.704Z,0.70
2019-01-28T05:50:21.325Z,1.47
2019-01-28T05:52:49.826Z,1.97
2019-01-28T05:55:19.603Z,1.50
2019-01-28T05:57:48.085Z,0.87
2019-01-28T06:00:23.716Z,1.20
2019-01-28T06:02:52.153Z,1.20
2019-01-28T06:05:20.735Z,0.73
2019-01-28T06:07:49.198Z,1.67
2019-01-28T06:10:17.677Z,0.80
2019-01-28T06:12:46.131Z,1.40
2019-01-28T06:15:17.181Z,1.40
2019-01-28T06:17:45.629Z,1.27
2019-01-28T06:20:19.935Z,0.80
2019-01-28T06:22:48.352Z,0.77
2019-01-28T06:25:22.609Z,0.63
2019-01-28T06:27:51.051Z,0.63
2019-01-28T06:30:30.897Z,0.90
2019-01-28T06:32:59.350Z,1.07
2019-01-28T06:35:27.858Z,1.00
2019-01-28T06:37:56.420Z,0.80
2019-01-28T06:40:27.650Z,1.20
2019-01-28T06:42:56.168Z,0.70
2019-01-28T06:45:24.702Z,0.53
2019-01-28T06:47:53.144Z,1.17
2019-01-28T06:50:22.613Z,1.00
2019-01-28T06:52:51.181Z,1.30
2019-01-28T06:55:20.240Z,1.50
2019-01-28T06:57:48.946Z,1.53
2019-01-28T07:00:36.716Z,1.07
2019-01-28T07:03:06.215Z,0.83
2019-01-28T07:05:35.834Z,1.33
2019-01-28T07:08:05.628Z,0.90
2019-01-28T07:10:34.064Z,1.33
2019-01-28T07:13:02.564Z,1.93
2019-01-28T07:15:31.010Z,1.10
2019-01-28T07:17:59.418Z,1.27
2019-01-28T07:20:47.205Z,1.87
2019-01-28T07:23:15.623Z,1.53
2019-01-28T07:25:48.294Z,1.33
2019-01-28T07:28:16.723Z,1.90
2019-01-28T07:30:45.157Z,1.40
2019-01-28T07:33:13.583Z,0.93
2019-01-28T07:35:42.023Z,1.57
2019-01-28T07:38:10.475Z,1.40
2019-01-28T07:40:38.907Z,1.20
2019-01-28T07:43:07.351Z,1.80
2019-01-28T07:45:44.559Z,1.20
2019-01-28T07:48:07.271Z,1.67
2019-01-28T07:50:35.695Z,1.37
2019-01-28T07:53:05.087Z,1.53
2019-01-28T07:55:33.670Z,1.50
2019-01-28T07:58:21.433Z,1.03
2019-01-28T08:00:49.868Z,1.30
2019-01-28T08:03:37.651Z,1.90
2019-01-28T08:06:13.617Z,1.50
2019-01-28T08:08:42.128Z,1.47
2019-01-28T08:11:16.435Z,1.30
2019-01-28T08:13:44.872Z,1.40
2019-01-28T08:16:13.320Z,1.80
2019-01-28T08:18:41.722Z,1.07
2019-01-28T08:21:10.163Z,1.03
2019-01-28T08:23:38.575Z,1.33
2019-01-28T08:26:07.021Z,1.47
2019-01-28T08:28:37.005Z,1.73
2019-01-28T08:31:24.935Z,2.17
2019-01-28T08:33:53.341Z,1.53
2019-01-28T08:36:21.786Z,1.67
2019-01-28T08:38:50.295Z,1.40
2019-01-28T08:41:18.712Z,0.80
2019-01-28T08:43:47.226Z,1.13
2019-01-28T08:46:15.646Z,1.17
2019-01-28T08:48:44.190Z,0.90
2019-01-28T08:51:12.598Z,0.67
2019-01-28T08:53:41.217Z,0.60
2019-01-28T08:56:16.652Z,0.73
2019-01-28T08:58:40.002Z,0.80
2019-01-28T09:01:08.419Z,1.73
2019-01-28T09:03:36.887Z,1.10
2019-01-28T09:06:05.437Z,1.13
2019-01-28T09:08:33.982Z,1.10
2019-01-28T09:11:02.395Z,1.60
2019-01-28T09:13:30.849Z,1.00
2019-01-28T09:16:18.716Z,1.70
2019-01-28T09:18:47.204Z,1.63
2019-01-28T09:21:15.615Z,1.90
2019-01-28T09:23:44.126Z,1.93
2019-01-28T09:26:31.885Z,1.30
2019-01-28T09:29:00.318Z,2.40
2019-01-28T09:31:28.803Z,1.90
2019-01-28T09:33:57.242Z,2.17
2019-01-28T09:36:45.054Z,1.23
2019-01-28T09:39:32.897Z,2.37
2019-01-28T09:42:01.371Z,2.20
2019-01-28T09:44:29.840Z,1.90
2019-01-28T09:46:58.251Z,1.37
2019-01-28T09:49:26.699Z,1.73
2019-01-28T09:51:55.117Z,1.20
2019-01-28T09:54:23.531Z,2.00
2019-01-28T09:56:51.979Z,2.13
2019-01-28T09:59:20.400Z,1.80
2019-01-28T10:01:48.847Z,1.70
2019-01-28T10:04:17.263Z,1.80
2019-01-28T10:06:45.708Z,1.00
2019-01-28T10:09:14.124Z,1.67
2019-01-28T10:12:01.917Z,1.97
2019-01-28T10:14:30.322Z,0.87
2019-01-28T10:17:04.751Z,1.33
2019-01-28T10:19:33.200Z,1.10
2019-01-28T10:22:20.955Z,1.13
2019-01-28T10:24:49.387Z,0.83
2019-01-28T10:27:17.815Z,1.07
2019-01-28T10:29:46.255Z,1.77
2019-01-28T10:32:14.672Z,1.57
2019-01-28T10:34:43.115Z,1.10
2019-01-28T10:37:11.600Z,1.63
2019-01-28T10:39:40.011Z,0.90
2019-01-28T10:42:09.902Z,0.93
2019-01-28T10:44:38.502Z,1.07
2019-01-28T10:47:07.099Z,1.20
2019-01-28T10:49:54.862Z,1.50
2019-01-28T10:52:23.305Z,1.00
2019-01-28T10:54:51.751Z,0.97
2019-01-28T10:57:24.602Z,1.97
2019-01-28T10:59:53.055Z,2.57
2019-01-28T11:02:21.538Z,1.33
2019-01-28T11:04:49.974Z,0.97
2019-01-28T11:07:18.416Z,1.13
2019-01-28T11:09:46.949Z,2.00
2019-01-28T11:12:15.607Z,0.80
2019-01-28T11:14:44.145Z,0.93
2019-01-28T11:17:31.928Z,1.17
2019-01-28T11:20:13.230Z,0.83
2019-01-28T11:22:43.038Z,1.07
2019-01-28T11:25:17.895Z,1.23
2019-01-28T11:27:46.425Z,1.00
2019-01-28T11:30:40.001Z,1.30
2019-01-28T11:33:08.774Z,1.60
2019-01-28T11:35:38.016Z,1.00
2019-01-28T11:38:06.796Z,1.20
2019-01-28T11:40:35.686Z,0.97
2019-01-28T11:43:23.492Z,1.97
2019-01-28T11:46:00.152Z,0.80
2019-01-28T11:48:28.860Z,1.00
2019-01-28T11:50:57.303Z,0.90
2019-01-28T11:53:25.788Z,1.40
2019-01-28T11:55:54.227Z,0.83
2019-01-28T11:58:22.639Z,1.20
2019-01-28T12:06:07.374Z,0.87
2019-01-28T12:08:35.799Z,1.00
2019-01-28T12:11:04.846Z,0.83
2019-01-28T12:13:33.290Z,1.50
2019-01-28T12:16:21.245Z,2.07
2019-01-28T12:18:49.680Z,1.93
2019-01-28T12:21:18.192Z,0.93
2019-01-28T12:23:46.622Z,1.20
2019-01-28T12:26:15.072Z,0.97
2019-01-28T12:28:43.483Z,1.40
2019-01-28T12:31:12.063Z,1.60
2019-01-28T12:33:40.474Z,1.43
2019-01-28T12:36:08.936Z,1.30
2019-01-28T12:38:37.349Z,1.63
2019-01-28T12:41:05.760Z,1.40
2019-01-28T12:43:34.202Z,1.20
2019-01-28T12:46:03.438Z,1.07
2019-01-28T12:48:32.418Z,1.60
2019-01-28T12:51:00.860Z,1.63
2019-01-28T12:53:29.310Z,1.20
2019-01-28T12:55:57.779Z,1.53
2019-01-28T12:58:26.199Z,1.80
2019-01-28T13:00:56.301Z,1.97
2019-01-28T13:03:24.718Z,1.33
2019-01-28T13:05:53.158Z,1.30
2019-01-28T13:08:21.612Z,1.20
2019-01-28T13:11:09.462Z,2.30
2019-01-28T13:13:41.181Z,1.27
2019-01-28T13:16:08.393Z,2.63
2019-01-28T13:18:36.872Z,1.30
2019-01-28T13:21:05.386Z,1.33
2019-01-28T13:23:33.801Z,1.23
2019-01-28T13:26:02.221Z,2.77
2019-01-28T13:28:30.674Z,2.43
2019-01-28T13:30:59.087Z,1.60
2019-01-28T13:33:27.531Z,2.37
2019-01-28T13:35:55.987Z,2.67
2019-01-28T13:38:43.796Z,1.47
2019-01-28T13:41:12.223Z,2.10
2019-01-28T13:43:40.639Z,1.40
2019-01-28T13:46:28.429Z,2.37
2019-01-28T13:48:56.847Z,1.80
2019-01-28T13:51:25.299Z,1.93
2019-01-28T13:53:53.718Z,2.00
2019-01-28T13:56:22.239Z,1.30
2019-01-28T13:58:51.655Z,1.03
2019-01-28T14:01:20.259Z,2.90
2019-01-28T14:03:48.727Z,1.80
2019-01-28T14:06:17.136Z,2.87
2019-01-28T14:08:45.574Z,2.67
2019-01-28T14:11:14.019Z,2.10
2019-01-28T14:13:42.458Z,1.83
2019-01-28T14:16:30.225Z,3.03
2019-01-28T14:18:58.672Z,2.07
2019-01-28T14:21:27.095Z,2.30
2019-01-28T14:23:55.536Z,3.03
2019-01-28T14:26:23.997Z,1.47
2019-01-28T14:28:53.875Z,1.73
2019-01-28T14:31:41.761Z,2.20
2019-01-28T14:34:10.244Z,1.30
2019-01-28T14:36:38.819Z,2.03
2019-01-28T14:39:13.687Z,2.30
2019-01-28T14:41:59.493Z,1.80
2019-01-28T14:44:27.991Z,2.23
2019-01-28T14:46:56.452Z,2.87
2019-01-28T14:49:24.867Z,1.90
2019-01-28T14:51:53.319Z,1.53
2019-01-28T14:54:21.732Z,1.50
2019-01-28T14:56:52.077Z,2.80
2019-01-28T14:59:23.012Z,1.73
2019-01-28T15:01:51.427Z,1.30
2019-01-28T15:04:19.883Z,1.33
2019-01-28T15:06:48.363Z,1.17
2019-01-28T15:09:22.521Z,1.17
2019-01-28T15:11:50.992Z,1.70
2019-01-28T15:14:38.783Z,1.37
2019-01-28T15:17:07.270Z,2.53
2019-01-28T15:19:35.716Z,2.10
2019-01-28T15:22:04.231Z,1.43
2019-01-28T15:24:32.648Z,1.30
2019-01-28T15:27:01.092Z,1.00
2019-01-28T15:29:29.514Z,1.47
2019-01-28T15:31:57.943Z,1.50
2019-01-28T15:34:26.374Z,1.40
2019-01-28T15:36:54.868Z,1.10
2019-01-28T15:39:23.299Z,1.80
2019-01-28T15:41:52.799Z,1.60
2019-01-28T15:44:21.260Z,1.73
2019-01-28T15:46:49.955Z,1.80
2019-01-28T15:49:18.394Z,2.37
2019-01-28T15:51:46.838Z,1.67
2019-01-28T15:54:15.255Z,0.87
2019-01-28T15:56:43.747Z,1.50
2019-01-28T15:59:31.527Z,1.37
2019-01-28T16:01:59.947Z,1.93
2019-01-28T16:04:47.734Z,1.67
2019-01-28T16:07:16.148Z,2.00
2019-01-28T16:09:44.562Z,2.70
2019-01-28T16:12:13.042Z,1.73
2019-01-28T16:15:00.965Z,2.13
2019-01-28T16:17:29.478Z,2.60
2019-01-28T16:19:58.013Z,1.80
2019-01-28T16:22:26.459Z,1.77
2019-01-28T16:24:55.012Z,2.17
2019-01-28T16:27:23.490Z,1.63
2019-01-28T16:29:51.910Z,1.80
2019-01-28T16:32:20.348Z,1.03
2019-01-28T16:34:48.755Z,1.40
2019-01-28T16:37:17.214Z,2.00
2019-01-28T16:40:06.127Z,1.17
2019-01-28T16:42:35.643Z,0.90
2019-01-28T16:45:04.935Z,0.70
2019-01-28T16:47:33.380Z,0.87
2019-01-28T16:50:01.795Z,1.00
2019-01-28T16:52:30.250Z,0.87
2019-01-28T16:54:58.683Z,1.17
2019-01-28T16:57:27.127Z,0.90
2019-01-28T16:59:55.568Z,1.13
2019-01-28T17:02:24.004Z,1.00
2019-01-28T17:04:52.419Z,1.03
2019-01-28T17:07:20.860Z,1.37
2019-01-28T17:09:49.311Z,1.50
2019-01-28T17:12:17.727Z,1.67
2019-01-28T17:15:07.047Z,1.37
2019-01-28T17:17:54.826Z,1.80
2019-01-28T17:20:35.499Z,1.40
2019-01-28T17:23:01.797Z,1.40
2019-01-28T17:25:42.134Z,2.07
2019-01-28T17:28:11.199Z,1.77
2019-01-28T17:30:41.981Z,2.00
2019-01-28T17:33:10.523Z,1.57
2019-01-28T17:35:58.323Z,3.53
2019-01-28T17:38:26.743Z,1.63
2019-01-28T17:40:55.190Z,2.20
2019-01-28T17:43:23.605Z,1.90
2019-01-28T17:45:52.095Z,1.50
2019-01-28T17:48:20.952Z,1.43
2019-01-28T17:50:49.526Z,3.20
2019-01-28T17:53:37.495Z,4.90
2019-01-28T17:56:06.263Z,4.77
2019-01-28T17:58:34.787Z,4.03
2019-01-28T18:01:03.788Z,2.13
2019-01-28T18:03:32.451Z,1.93
2019-01-28T18:06:01.239Z,2.10
2019-01-28T18:08:50.637Z,1.60
2019-01-28T18:11:19.678Z,1.60
2019-01-28T18:13:48.231Z,3.77
2019-01-28T18:16:16.716Z,2.00
2019-01-28T18:18:45.336Z,1.70
2019-01-28T18:21:13.971Z,1.50
2019-01-28T18:23:44.242Z,1.43
2019-01-28T18:26:12.854Z,1.10
2019-01-28T18:28:41.594Z,1.40
2019-01-28T18:31:10.011Z,0.80
2019-01-28T18:33:38.938Z,2.57
2019-01-28T18:36:07.639Z,0.80
2019-01-28T18:38:36.621Z,1.57
2019-01-28T18:41:07.114Z,0.90
2019-01-28T18:43:36.249Z,0.60
2019-01-28T18:46:06.171Z,1.00
2019-01-28T18:48:35.347Z,0.80
2019-01-28T18:51:04.283Z,0.90
2019-01-28T18:53:34.817Z,1.23
2019-01-28T18:56:04.130Z,1.17
2019-01-28T18:58:32.984Z,1.10
2019-01-28T19:01:01.529Z,0.97
2019-01-28T19:03:30.235Z,1.00
2019-01-28T19:06:22.486Z,1.07
2019-01-28T19:08:55.362Z,1.50
2019-01-28T19:11:25.443Z,2.60
2019-01-28T19:13:58.273Z,1.30
2019-01-28T19:16:46.690Z,1.43
2019-01-28T19:19:16.852Z,1.07
2019-01-28T19:21:46.935Z,1.67
2019-01-28T19:24:15.346Z,1.87
2019-01-28T19:27:03.131Z,1.67
2019-01-28T19:29:31.576Z,1.03
2019-01-28T19:32:00.035Z,1.47
2019-01-28T19:34:47.811Z,1.20
2019-01-28T19:37:16.240Z,1.33
2019-01-28T19:39:44.673Z,2.30
2019-01-28T19:42:32.443Z,1.10
2019-01-28T19:45:01.091Z,1.50
2019-01-28T19:47:29.555Z,1.37
2019-01-28T19:49:58.039Z,1.90
2019-01-28T19:52:26.458Z,1.37
2019-01-28T19:54:55.326Z,1.33
2019-01-28T19:57:23.786Z,1.53
2019-01-28T19:59:52.498Z,0.93
2019-01-28T20:02:21.284Z,1.33
2019-01-28T20:04:49.967Z,1.17
2019-01-28T20:07:18.823Z,0.50
2019-01-28T20:09:47.438Z,1.50
2019-01-28T20:12:15.930Z,1.90
2019-01-28T20:14:52.080Z,2.10
2019-01-28T20:17:20.730Z,1.03
2019-01-28T20:19:49.482Z,1.70
2019-01-28T20:22:20.597Z,1.97
2019-01-28T20:24:49.141Z,1.90
2019-01-28T20:27:17.761Z,1.73
2019-01-28T20:29:46.358Z,1.83
2019-01-28T20:32:15.113Z,2.53
2019-01-28T20:34:43.765Z,1.03
2019-01-28T20:37:12.665Z,1.30
2019-01-28T20:39:41.190Z,1.83
2019-01-28T20:42:28.995Z,1.20
2019-01-28T20:44:57.433Z,2.47
2019-01-28T20:47:25.906Z,1.40
2019-01-28T20:49:54.511Z,1.73
2019-01-28T20:52:22.990Z,3.50
2019-01-28T20:54:51.551Z,2.17
2019-01-28T20:57:20.019Z,2.00
2019-01-28T20:59:48.754Z,2.60
2019-01-28T21:05:20.668Z,2.23
2019-01-28T21:07:49.464Z,1.53
2019-01-28T21:10:37.498Z,3.13
2019-01-28T21:13:06.505Z,2.77
2019-01-28T21:15:35.214Z,2.43
2019-01-28T21:18:03.677Z,2.10
2019-01-28T21:20:51.460Z,2.40
2019-01-28T21:23:19.969Z,1.80
2019-01-28T21:25:48.737Z,2.33
2019-01-28T21:28:17.207Z,1.40
2019-01-28T21:30:45.737Z,2.10
2019-01-28T21:33:14.163Z,2.10
2019-01-28T21:36:00.596Z,1.70
2019-01-28T21:38:30.670Z,1.70
2019-01-28T21:41:18.427Z,1.80
2019-01-28T21:43:46.873Z,2.70
2019-01-28T21:46:15.364Z,2.37
2019-01-28T21:48:44.774Z,2.40
2019-01-28T21:51:13.271Z,2.20
2019-01-28T21:53:41.710Z,1.33
2019-01-28T21:56:10.125Z,1.73
2019-01-28T21:58:38.639Z,2.30
2019-01-28T22:04:02.175Z,2.00
2019-01-28T22:06:49.961Z,1.77
2019-01-28T22:09:30.545Z,1.90
2019-01-28T22:11:59.042Z,2.57
2019-01-28T22:14:46.839Z,1.67
2019-01-28T22:17:15.358Z,1.70
2019-01-28T22:19:44.068Z,1.50
2019-01-28T22:22:12.510Z,0.70
2019-01-28T22:24:40.927Z,1.90
2019-01-28T22:27:09.379Z,2.00
2019-01-28T22:29:37.798Z,1.30
2019-01-28T22:32:06.255Z,1.90
2019-01-28T22:34:54.038Z,1.43
2019-01-28T22:37:22.479Z,2.33
2019-01-28T22:40:03.459Z,1.10
2019-01-28T22:42:43.987Z,2.50
2019-01-28T22:45:15.083Z,2.43
2019-01-28T22:47:43.527Z,2.33
2019-01-28T22:50:32.845Z,1.47
2019-01-28T22:53:01.310Z,2.63
2019-01-28T22:55:29.727Z,2.50
2019-01-28T22:57:58.179Z,1.10
2019-01-28T23:00:51.609Z,2.27
2019-01-28T23:03:22.399Z,1.90
2019-01-28T23:05:50.996Z,2.13
2019-01-28T23:08:19.432Z,1.43
2019-01-28T23:11:07.220Z,0.83
2019-01-28T23:13:37.185Z,1.70
2019-01-28T23:16:05.954Z,1.53
2019-01-28T23:18:35.830Z,2.40
2019-01-28T23:21:04.361Z,2.43
2019-01-28T23:23:32.788Z,2.50
2019-01-28T23:26:01.239Z,1.47
2019-01-28T23:28:29.654Z,1.67
2019-01-28T23:30:58.104Z,1.83
2019-01-28T23:33:26.595Z,2.70
2019-01-28T23:35:55.060Z,3.10
2019-01-28T23:38:42.825Z,4.60
2019-01-28T23:41:11.261Z,4.03
2019-01-28T23:43:39.883Z,3.90
2019-01-28T23:46:08.381Z,4.40
2019-01-28T23:48:36.891Z,5.00
2019-01-28T23:51:05.400Z,4.47
2019-01-28T23:53:33.837Z,3.20
2019-01-28T23:56:02.284Z,4.70
2019-01-28T23:58:30.953Z,3.37
